Sparta, NC

2:08 AM EDT on April 27, 2017 (GMT -0400)
Grandview | | Change Station

Elev 2900 ft 36.50 °N, 81.12 °W | Updated 24 seconds ago

Clear
Clear
62.1 °F
Feels Like 62.1 °F
N
2.0
Wind Variable Wind from NW

Today
High -- | Low -- °F
--% Chance of Precip.
Yesterday
High -- | Low -- °F
Precip. -- in
Pressure 29.87 in
Visibility 10.0 miles
Clouds Clear
Dew Point 58 °F
Humidity 88%
Rainfall 0.00 in
Snow Depth Not available.
6:35 AM 8:09 PM
New Moon, 1% visible
METAR KGEV 270605Z AUTO 16004KT 10SM CLR 14/12 A2987 RMK AO2 T01370119
Pressure 29.87 in
Visibility 10.0 miles
Clouds Clear
Dew Point 58 °F
Humidity 88%
Rainfall 0.00 in
Snow Depth Not available.
6:35 AM 8:09 PM
New Moon, 1% visible
METAR KGEV 270605Z AUTO 16004KT 10SM CLR 14/12 A2987 RMK AO2 T01370119

Get Severe Weather Alerts

Thanks for signing up!

Be on the lookout for a verification email in your inbox.

You'll start receiving the daily forecast at 8 AM.

×

10-Day Weather Forecast

Almanac

Astronomy

Apr. 27, 2017 Rise Set
Actual Time
Civil Twilight
Nautical Twilight
Astronomical Twilight
Moon
Length of Visible Light
Length of Day
Tomorrow will be .
, % of the Moon is Illuminated

Today's Extremes

State Highs State Lows

Community

WunderPhotos

WunderBlog® & News

Nearby

Air Quality

  Air Quality AQ Index Pollutant
Not available.

Snow Depth

Station Depth Elevation

Earthquake Activity

City Distance Mag. Time & Date
Minimum magnitude displayed is 2.5.

Coastal Water Temperatures

Place Temperature

Stations

Nearby Weather Stations

Station Location Temp. Windchill Dew Point Humidity Wind Precip. Elev Updated Type
                   

Watches & Warnings

There are currently no watches in effect.